createdAt,value
2018-11-23T00:00:27.076Z,60.67
2018-11-23T00:01:30.384Z,59.45
2018-11-23T00:02:33.693Z,61.42
2018-11-23T00:03:37.032Z,53.95
2018-11-23T00:04:40.360Z,60.35
2018-11-23T00:05:43.673Z,57.67
2018-11-23T00:06:47.012Z,60.45
2018-11-23T00:07:50.818Z,60.05
2018-11-23T00:08:54.149Z,58.63
2018-11-23T00:09:57.475Z,60.05
2018-11-23T00:11:00.787Z,63.02
2018-11-23T00:12:04.161Z,54.48
2018-11-23T00:13:07.476Z,60.78
2018-11-23T00:14:10.824Z,66.30
2018-11-23T00:15:15.340Z,63.52
2018-11-23T00:16:18.681Z,65.72
2018-11-23T00:17:22.037Z,61.80
2018-11-23T00:18:25.360Z,58.20
2018-11-23T00:19:28.683Z,59.18
2018-11-23T00:20:32.004Z,65.92
2018-11-23T00:21:35.349Z,63.70
2018-11-23T00:22:38.757Z,66.17
2018-11-23T00:23:42.083Z,64.17
2018-11-23T00:24:45.453Z,67.32
2018-11-23T00:25:48.781Z,63.13
2018-11-23T00:26:52.147Z,65.50
2018-11-23T00:27:56.119Z,66.07
2018-11-23T00:28:59.460Z,63.87
2018-11-23T00:30:02.780Z,63.30
2018-11-23T00:31:06.176Z,63.87
2018-11-23T00:32:09.531Z,66.45
2018-11-23T00:33:12.852Z,63.23
2018-11-23T00:34:16.168Z,61.53
2018-11-23T00:35:21.064Z,63.05
2018-11-23T00:36:24.416Z,62.03
2018-11-23T00:37:27.737Z,62.10
2018-11-23T00:38:31.066Z,63.73
2018-11-23T00:39:34.425Z,64.22
2018-11-23T00:40:37.740Z,62.05
2018-11-23T00:41:41.093Z,62.23
2018-11-23T00:42:44.416Z,61.45
2018-11-23T00:43:47.740Z,57.93
2018-11-23T00:44:51.096Z,64.12
2018-11-23T00:45:54.417Z,71.80
2018-11-23T00:46:57.747Z,61.92
2018-11-23T00:48:01.465Z,60.43
2018-11-23T00:49:04.864Z,64.50
2018-11-23T00:50:10.472Z,59.27
2018-11-23T00:51:13.775Z,57.08
2018-11-23T00:52:17.094Z,59.95
2018-11-23T00:53:23.500Z,63.70
2018-11-23T00:54:26.808Z,65.40
2018-11-23T00:55:30.449Z,65.80
2018-11-23T00:56:33.812Z,62.58
2018-11-23T00:57:37.175Z,60.03
2018-11-23T00:58:40.487Z,59.48
2018-11-23T00:59:43.816Z,60.52
2018-11-23T01:00:47.175Z,62.27
2018-11-23T01:01:55.800Z,63.98
2018-11-23T01:02:59.756Z,66.33
2018-11-23T01:04:03.120Z,53.25
2018-11-23T01:05:06.620Z,57.23
2018-11-23T01:06:09.996Z,61.73
2018-11-23T01:07:13.325Z,61.70
2018-11-23T01:08:16.647Z,63.00
2018-11-23T01:09:19.968Z,61.37
2018-11-23T01:10:24.309Z,54.38
2018-11-23T01:11:27.688Z,57.98
2018-11-23T01:12:31.041Z,62.93
2018-11-23T01:13:34.393Z,64.27
2018-11-23T01:14:37.704Z,62.98
2018-11-23T01:15:41.022Z,56.20
2018-11-23T01:16:44.380Z,55.30
2018-11-23T01:17:47.712Z,55.00
2018-11-23T01:18:51.072Z,53.50
2018-11-23T01:19:54.396Z,62.58
2018-11-23T01:20:57.708Z,51.88
2018-11-23T01:22:01.051Z,52.20
2018-11-23T01:23:04.371Z,53.65
2018-11-23T01:24:07.699Z,52.23
2018-11-23T01:25:12.458Z,54.05
2018-11-23T01:26:15.776Z,47.67
2018-11-23T01:27:19.121Z,56.37
2018-11-23T01:28:22.469Z,48.83
2018-11-23T01:29:25.790Z,63.17
2018-11-23T01:30:30.495Z,57.15
2018-11-23T01:31:33.825Z,48.25
2018-11-23T01:32:37.153Z,53.50
2018-11-23T01:33:40.510Z,53.68
2018-11-23T01:34:43.863Z,57.00
2018-11-23T01:35:47.182Z,60.63
2018-11-23T01:36:50.534Z,51.95
2018-11-23T01:37:53.888Z,55.08
2018-11-23T01:38:57.236Z,49.58
2018-11-23T01:40:00.608Z,53.42
2018-11-23T01:41:04.004Z,57.05
2018-11-23T01:42:07.336Z,52.80
2018-11-23T01:43:10.680Z,59.48
2018-11-23T01:44:13.996Z,50.63
2018-11-23T01:45:17.588Z,54.88
2018-11-23T01:46:20.942Z,56.33
2018-11-23T01:47:24.272Z,60.12
2018-11-23T01:48:27.586Z,58.00
2018-11-23T01:49:30.908Z,52.20
2018-11-23T01:50:34.247Z,53.60
2018-11-23T01:51:37.647Z,55.00
2018-11-23T01:52:40.996Z,53.25
2018-11-23T01:53:44.304Z,50.92
2018-11-23T01:54:47.627Z,57.23
2018-11-23T01:55:50.948Z,48.30
2018-11-23T01:56:54.296Z,49.15
2018-11-23T01:57:57.656Z,50.73
2018-11-23T01:59:00.985Z,60.60
2018-11-23T02:00:04.616Z,67.47
2018-11-23T02:01:07.968Z,51.88
2018-11-23T02:02:11.564Z,50.43
2018-11-23T02:03:14.924Z,50.12
2018-11-23T02:04:18.260Z,55.12
2018-11-23T02:05:21.629Z,50.15
2018-11-23T02:06:25.013Z,53.55
2018-11-23T02:07:28.437Z,44.98
2018-11-23T02:08:31.784Z,46.48
2018-11-23T02:09:35.400Z,50.98
2018-11-23T02:10:38.724Z,45.20
2018-11-23T02:11:42.090Z,45.20
2018-11-23T02:12:45.461Z,43.78
2018-11-23T02:13:48.788Z,46.95
2018-11-23T02:14:52.112Z,50.17
2018-11-23T02:15:55.443Z,46.45
2018-11-23T02:16:58.860Z,47.13
2018-11-23T02:18:02.180Z,50.10
2018-11-23T02:19:05.730Z,45.70
2018-11-23T02:20:10.568Z,47.13
2018-11-23T02:21:13.933Z,45.48
2018-11-23T02:22:17.317Z,45.83
2018-11-23T02:23:20.640Z,53.65
2018-11-23T02:24:24.034Z,46.68
2018-11-23T02:25:27.368Z,45.63
2018-11-23T02:26:30.724Z,45.70
2018-11-23T02:27:34.074Z,46.68
2018-11-23T02:28:37.432Z,55.98
2018-11-23T02:29:40.753Z,40.95
2018-11-23T02:30:44.537Z,44.77
2018-11-23T02:31:47.912Z,42.73
2018-11-23T02:32:51.261Z,45.70
2018-11-23T02:33:54.604Z,46.42
2018-11-23T02:34:57.961Z,42.93
2018-11-23T02:36:01.325Z,52.65
2018-11-23T02:37:04.701Z,48.95
2018-11-23T02:38:08.040Z,44.48
2018-11-23T02:39:11.417Z,46.00
2018-11-23T02:40:16.149Z,45.30
2018-11-23T02:41:19.472Z,47.33
2018-11-23T02:42:22.805Z,42.25
2018-11-23T02:43:26.192Z,53.05
2018-11-23T02:44:29.514Z,48.52
2018-11-23T02:45:32.851Z,48.15
2018-11-23T02:46:36.184Z,44.38
2018-11-23T02:47:39.627Z,44.88
2018-11-23T02:48:43.005Z,51.13
2018-11-23T02:49:46.332Z,45.98
2018-11-23T02:50:49.657Z,54.93
2018-11-23T02:51:52.989Z,44.58
2018-11-23T02:52:56.327Z,44.20
2018-11-23T02:53:59.689Z,44.83
2018-11-23T02:55:03.177Z,46.42
2018-11-23T02:56:06.708Z,46.65
2018-11-23T02:57:10.073Z,41.30
2018-11-23T02:58:13.463Z,46.45
2018-11-23T02:59:16.800Z,48.80
2018-11-23T03:00:21.412Z,41.68
2018-11-23T03:01:24.778Z,40.48
2018-11-23T03:02:28.124Z,43.55
2018-11-23T03:03:31.488Z,43.48
2018-11-23T03:04:34.892Z,45.20
2018-11-23T03:05:38.232Z,43.58
2018-11-23T03:06:41.577Z,38.15
2018-11-23T03:07:44.924Z,39.33
2018-11-23T03:08:48.308Z,42.62
2018-11-23T03:09:51.666Z,44.03
2018-11-23T03:10:55.032Z,40.43
2018-11-23T03:11:58.360Z,42.65
2018-11-23T03:13:01.681Z,42.17
2018-11-23T03:14:05.208Z,47.73
2018-11-23T03:15:10.020Z,46.95
2018-11-23T03:16:13.352Z,40.25
2018-11-23T03:17:16.687Z,43.35
2018-11-23T03:18:20.020Z,39.80
2018-11-23T03:19:23.382Z,44.05
2018-11-23T03:20:26.737Z,37.65
2018-11-23T03:21:30.082Z,41.77
2018-11-23T03:22:33.460Z,42.35
2018-11-23T03:23:36.789Z,36.60
2018-11-23T03:24:40.172Z,45.00
2018-11-23T03:25:43.496Z,45.83
2018-11-23T03:26:46.873Z,43.17
2018-11-23T03:27:50.212Z,39.85
2018-11-23T03:28:54.480Z,44.48
2018-11-23T03:29:57.865Z,41.73
2018-11-23T03:31:01.195Z,43.42
2018-11-23T03:32:04.658Z,49.48
2018-11-23T03:33:08.046Z,40.90
2018-11-23T03:34:11.430Z,43.25
2018-11-23T03:35:14.892Z,40.33
2018-11-23T03:36:18.209Z,41.85
2018-11-23T03:37:21.529Z,40.78
2018-11-23T03:38:24.844Z,37.98
2018-11-23T03:39:34.052Z,43.13
2018-11-23T03:40:31.550Z,40.73
2018-11-23T03:41:34.880Z,43.65
2018-11-23T03:42:38.196Z,42.98
2018-11-23T03:43:41.546Z,41.08
2018-11-23T03:44:44.864Z,37.78
2018-11-23T03:45:48.236Z,46.02
2018-11-23T03:46:51.603Z,43.40
2018-11-23T03:47:54.945Z,42.30
2018-11-23T03:48:58.300Z,49.58
2018-11-23T03:50:01.609Z,40.00
2018-11-23T03:51:05.472Z,38.95
2018-11-23T03:52:08.793Z,39.45
2018-11-23T03:53:12.120Z,39.42
2018-11-23T03:54:15.469Z,42.65
2018-11-23T03:55:18.785Z,45.75
2018-11-23T03:56:22.138Z,48.80
2018-11-23T03:57:25.465Z,51.53
2018-11-23T03:58:28.784Z,46.28
2018-11-23T03:59:32.136Z,50.80
2018-11-23T04:00:35.448Z,55.65
2018-11-23T04:01:38.779Z,53.52
2018-11-23T04:02:42.110Z,45.23
2018-11-23T04:03:45.432Z,55.12
2018-11-23T04:04:48.801Z,43.52
2018-11-23T04:05:52.138Z,49.42
2018-11-23T04:06:55.469Z,49.33
2018-11-23T04:07:58.780Z,48.13
2018-11-23T04:09:02.116Z,44.48
2018-11-23T04:10:06.568Z,46.13
2018-11-23T04:11:09.915Z,44.98
2018-11-23T04:12:13.608Z,45.85
2018-11-23T04:13:16.933Z,40.92
2018-11-23T04:14:20.264Z,50.80
2018-11-23T04:15:23.636Z,45.03
2018-11-23T04:16:27.002Z,49.10
2018-11-23T04:17:30.324Z,47.50
2018-11-23T04:18:33.657Z,48.50
2018-11-23T04:19:36.977Z,46.42
2018-11-23T04:20:40.327Z,40.83
2018-11-23T04:21:43.703Z,50.98
2018-11-23T04:22:47.025Z,56.83
2018-11-23T04:23:50.384Z,47.73
2018-11-23T04:24:53.704Z,52.25
2018-11-23T04:25:57.084Z,50.40
2018-11-23T04:27:00.429Z,49.60
2018-11-23T04:28:03.752Z,48.78
2018-11-23T04:29:07.077Z,49.60
2018-11-23T04:30:12.473Z,48.92
2018-11-23T04:31:15.824Z,57.38
2018-11-23T04:32:19.175Z,49.73
2018-11-23T04:33:22.736Z,60.10
2018-11-23T04:34:26.840Z,54.98
2018-11-23T04:35:30.158Z,57.95
2018-11-23T04:36:33.506Z,57.15
2018-11-23T04:37:36.850Z,57.45
2018-11-23T04:38:40.167Z,58.30
2018-11-23T04:39:43.479Z,50.90
2018-11-23T04:40:46.788Z,48.60
2018-11-23T04:41:50.124Z,52.80
2018-11-23T04:42:53.469Z,47.30
2018-11-23T04:43:56.801Z,51.25
2018-11-23T04:45:00.140Z,57.03
2018-11-23T04:46:03.672Z,50.75
2018-11-23T04:47:06.994Z,49.05
2018-11-23T04:48:10.308Z,52.48
2018-11-23T04:49:13.611Z,52.05
2018-11-23T04:50:17.052Z,55.50
2018-11-23T04:51:20.409Z,50.40
2018-11-23T04:52:23.736Z,59.53
2018-11-23T04:53:27.051Z,49.08
2018-11-23T04:54:30.661Z,53.20
2018-11-23T04:55:33.971Z,49.23
2018-11-23T04:56:37.410Z,50.08
2018-11-23T04:57:40.923Z,53.45
2018-11-23T04:58:44.250Z,53.55
2018-11-23T04:59:47.557Z,52.78
2018-11-23T05:00:50.871Z,50.63
2018-11-23T05:01:54.228Z,52.62
2018-11-23T05:02:57.531Z,46.35
2018-11-23T05:04:00.881Z,49.85
2018-11-23T05:05:04.728Z,49.42
2018-11-23T05:06:08.060Z,44.42
2018-11-23T05:07:11.425Z,48.83
2018-11-23T05:08:14.766Z,58.58
2018-11-23T05:09:18.085Z,60.80
2018-11-23T05:10:21.436Z,52.38
2018-11-23T05:11:24.789Z,53.73
2018-11-23T05:12:28.092Z,52.65
2018-11-23T05:13:31.449Z,55.60
2018-11-23T05:14:34.760Z,43.23
2018-11-23T05:15:38.075Z,54.00
2018-11-23T05:16:41.381Z,51.70
2018-11-23T05:17:44.956Z,54.53
2018-11-23T05:18:48.310Z,55.70
2018-11-23T05:19:51.609Z,56.13
2018-11-23T05:20:54.922Z,60.85
2018-11-23T05:21:58.253Z,48.23
2018-11-23T05:23:01.584Z,59.58
2018-11-23T05:24:04.983Z,63.48
2018-11-23T05:25:09.600Z,52.65
2018-11-23T05:26:12.932Z,56.35
2018-11-23T05:27:16.268Z,49.13
2018-11-23T05:28:19.622Z,49.20
2018-11-23T05:29:22.965Z,49.70
2018-11-23T05:30:33.056Z,46.08
2018-11-23T05:31:36.376Z,46.85
2018-11-23T05:32:40.038Z,54.20
2018-11-23T05:33:43.390Z,53.87
2018-11-23T05:34:46.744Z,47.43
2018-11-23T05:35:50.057Z,52.83
2018-11-23T05:36:53.424Z,48.63
2018-11-23T05:37:56.727Z,51.85
2018-11-23T05:39:00.041Z,50.65
2018-11-23T05:40:03.457Z,46.98
2018-11-23T05:41:06.833Z,45.10
2018-11-23T05:42:10.132Z,45.98
2018-11-23T05:43:13.433Z,46.40
2018-11-23T05:44:16.749Z,50.52
2018-11-23T05:45:21.536Z,42.67
2018-11-23T05:46:24.874Z,48.58
2018-11-23T05:47:28.220Z,49.98
2018-11-23T05:48:31.524Z,45.98
2018-11-23T05:49:34.871Z,48.60
2018-11-23T05:50:38.224Z,52.20
2018-11-23T05:51:41.575Z,45.30
2018-11-23T05:52:45.295Z,46.70
2018-11-23T05:53:48.604Z,49.45
2018-11-23T05:54:51.930Z,50.67
2018-11-23T05:55:55.305Z,53.58
2018-11-23T05:56:58.761Z,47.00
2018-11-23T05:58:02.076Z,47.98
2018-11-23T05:59:05.690Z,47.23
2018-11-23T06:00:12.819Z,47.95
2018-11-23T06:01:16.152Z,52.43
2018-11-23T06:02:19.617Z,50.60
2018-11-23T06:03:22.923Z,53.95
2018-11-23T06:04:26.246Z,48.30
2018-11-23T06:05:29.557Z,47.90
2018-11-23T06:06:32.905Z,50.20
2018-11-23T06:07:36.532Z,54.63
2018-11-23T06:08:39.896Z,53.60
2018-11-23T06:09:43.208Z,54.85
2018-11-23T06:10:46.526Z,57.15
2018-11-23T06:11:49.909Z,50.63
2018-11-23T06:12:53.215Z,51.13
2018-11-23T06:13:56.525Z,55.05
2018-11-23T06:14:59.841Z,49.83
2018-11-23T06:16:03.201Z,51.65
2018-11-23T06:17:06.568Z,49.03
2018-11-23T06:18:09.899Z,53.38
2018-11-23T06:19:13.273Z,53.13
2018-11-23T06:20:18.736Z,48.02
2018-11-23T06:21:22.046Z,49.75
2018-11-23T06:22:25.379Z,49.95
2018-11-23T06:23:28.724Z,51.70
2018-11-23T06:24:32.315Z,49.88
2018-11-23T06:25:38.665Z,44.38
2018-11-23T06:26:42.008Z,45.25
2018-11-23T06:27:45.346Z,48.23
2018-11-23T06:28:48.707Z,48.48
2018-11-23T06:29:52.036Z,44.45
2018-11-23T06:30:55.378Z,43.33
2018-11-23T06:31:58.701Z,45.48
2018-11-23T06:33:13.788Z,44.13
2018-11-23T06:34:17.126Z,43.38
2018-11-23T06:35:20.450Z,47.27
2018-11-23T06:36:23.765Z,43.90
2018-11-23T06:37:27.078Z,49.63
2018-11-23T06:38:30.529Z,49.55
2018-11-23T06:39:33.840Z,45.75
2018-11-23T06:40:37.177Z,47.10
2018-11-23T06:41:40.483Z,44.80
2018-11-23T06:42:43.791Z,47.43
2018-11-23T06:43:47.621Z,49.23
2018-11-23T06:44:50.956Z,52.67
2018-11-23T06:45:54.345Z,42.58
2018-11-23T06:46:57.696Z,47.05
2018-11-23T06:48:01.011Z,46.58
2018-11-23T06:49:04.345Z,37.95
2018-11-23T06:50:11.289Z,47.23
2018-11-23T06:51:14.645Z,49.73
2018-11-23T06:52:17.959Z,50.03
2018-11-23T06:53:21.316Z,47.05
2018-11-23T06:54:24.631Z,42.15
2018-11-23T06:55:27.945Z,44.15
2018-11-23T06:56:31.256Z,45.78
2018-11-23T06:57:34.602Z,46.00
2018-11-23T06:58:37.912Z,48.45
2018-11-23T06:59:41.244Z,46.08
2018-11-23T07:00:44.568Z,54.60
2018-11-23T07:01:47.944Z,58.63
2018-11-23T07:02:51.304Z,54.48
2018-11-23T07:03:54.608Z,57.23
2018-11-23T07:04:57.912Z,56.73
2018-11-23T07:06:01.232Z,53.90
2018-11-23T07:07:04.889Z,55.80
2018-11-23T07:08:09.153Z,52.93
2018-11-23T07:09:12.469Z,55.92
2018-11-23T07:10:15.789Z,48.95
2018-11-23T07:11:19.163Z,49.40
2018-11-23T07:12:22.488Z,51.33
2018-11-23T07:13:25.807Z,44.73
2018-11-23T07:14:29.146Z,56.98
2018-11-23T07:15:32.483Z,41.98
2018-11-23T07:16:35.780Z,49.95
2018-11-23T07:17:39.494Z,46.90
2018-11-23T07:18:42.840Z,51.92
2018-11-23T07:19:46.155Z,53.35
2018-11-23T07:20:49.473Z,51.83
2018-11-23T07:21:52.809Z,43.48
2018-11-23T07:22:56.124Z,46.20
2018-11-23T07:23:59.499Z,44.25
2018-11-23T07:25:02.820Z,49.60
2018-11-23T07:26:06.249Z,48.15
2018-11-23T07:27:09.598Z,40.38
2018-11-23T07:28:15.532Z,44.58
2018-11-23T07:29:16.262Z,44.10
2018-11-23T07:30:22.113Z,41.77
2018-11-23T07:31:25.464Z,43.17
2018-11-23T07:32:28.785Z,50.30
2018-11-23T07:33:32.089Z,43.35
2018-11-23T07:34:35.436Z,46.53
2018-11-23T07:35:38.816Z,43.02
2018-11-23T07:36:42.129Z,40.98
2018-11-23T07:37:45.439Z,41.73
2018-11-23T07:38:48.748Z,40.10
2018-11-23T07:40:03.590Z,42.93
2018-11-23T07:41:18.443Z,46.73
2018-11-23T07:42:25.172Z,41.23
2018-11-23T07:43:28.487Z,41.35
2018-11-23T07:44:31.956Z,53.68
2018-11-23T07:45:35.382Z,51.60
2018-11-23T07:46:39.540Z,54.20
2018-11-23T07:47:42.998Z,44.83
2018-11-23T07:48:46.537Z,45.35
2018-11-23T07:49:49.906Z,41.73
2018-11-23T07:50:53.232Z,46.73
2018-11-23T07:51:56.586Z,42.00
2018-11-23T07:53:00.049Z,42.53
2018-11-23T07:54:03.397Z,49.60
2018-11-23T07:55:08.389Z,45.15
2018-11-23T07:56:11.749Z,42.48
2018-11-23T07:57:15.135Z,40.35
2018-11-23T07:58:18.508Z,37.30
2018-11-23T07:59:21.823Z,47.62
2018-11-23T08:00:25.995Z,45.40
2018-11-23T08:01:29.342Z,45.98
2018-11-23T08:02:32.685Z,45.60
2018-11-23T08:03:36.049Z,44.65
2018-11-23T08:04:40.124Z,42.48
2018-11-23T08:05:43.448Z,41.83
2018-11-23T08:06:46.762Z,44.18
2018-11-23T08:07:50.125Z,50.55
2018-11-23T08:08:53.457Z,46.85
2018-11-23T08:09:56.772Z,42.67
2018-11-23T08:11:01.400Z,42.95
2018-11-23T08:12:05.413Z,42.73
2018-11-23T08:13:08.788Z,46.00
2018-11-23T08:14:12.120Z,38.58
2018-11-23T08:15:18.749Z,49.93
2018-11-23T08:16:22.099Z,48.25
2018-11-23T08:17:25.420Z,41.37
2018-11-23T08:18:28.735Z,49.03
2018-11-23T08:19:32.045Z,45.55
2018-11-23T08:20:35.348Z,48.10
2018-11-23T08:21:38.730Z,47.20
2018-11-23T08:22:42.189Z,53.58
2018-11-23T08:23:45.514Z,56.85
2018-11-23T08:24:48.869Z,60.10
2018-11-23T08:25:52.217Z,61.60
2018-11-23T08:26:55.772Z,54.15
2018-11-23T08:27:59.093Z,59.18
2018-11-23T08:29:02.412Z,58.05
2018-11-23T08:30:09.731Z,51.02
2018-11-23T08:31:13.081Z,46.77
2018-11-23T08:32:16.400Z,52.38
2018-11-23T08:33:19.715Z,48.52
2018-11-23T08:34:23.068Z,54.18
2018-11-23T08:35:26.416Z,44.48
2018-11-23T08:36:29.729Z,41.25
2018-11-23T08:37:33.049Z,45.20
2018-11-23T08:38:36.396Z,49.23
2018-11-23T08:39:39.735Z,51.92
2018-11-23T08:40:43.029Z,48.92
2018-11-23T08:41:46.410Z,46.45
2018-11-23T08:42:50.658Z,48.10
2018-11-23T08:43:53.990Z,47.03
2018-11-23T08:44:57.296Z,53.45
2018-11-23T08:46:00.624Z,49.63
2018-11-23T08:47:03.948Z,51.40
2018-11-23T08:48:07.604Z,49.60
2018-11-23T08:49:10.909Z,45.17
2018-11-23T08:50:16.760Z,48.73
2018-11-23T08:51:20.115Z,46.23
2018-11-23T08:52:23.425Z,46.05
2018-11-23T08:53:34.239Z,48.95
2018-11-23T08:54:37.545Z,47.45
2018-11-23T08:55:40.899Z,47.67
2018-11-23T08:56:44.208Z,41.23
2018-11-23T08:57:47.576Z,46.60
2018-11-23T08:58:50.939Z,59.20
2018-11-23T08:59:54.252Z,49.08
2018-11-23T09:00:57.616Z,59.25
2018-11-23T09:02:00.915Z,54.42
2018-11-23T09:03:04.245Z,48.08
2018-11-23T09:04:07.576Z,61.88
2018-11-23T09:05:11.670Z,56.35
2018-11-23T09:06:15.020Z,49.15
2018-11-23T09:07:18.351Z,42.80
2018-11-23T09:08:21.704Z,98.47
2018-11-23T09:09:25.072Z,67.90
2018-11-23T09:10:29.689Z,48.63
2018-11-23T09:11:33.017Z,48.58
2018-11-23T09:12:36.347Z,51.45
2018-11-23T09:13:40.760Z,42.48
2018-11-23T09:14:44.073Z,41.45
2018-11-23T09:15:47.379Z,47.73
2018-11-23T09:16:50.688Z,51.98
2018-11-23T09:17:54.081Z,50.10
2018-11-23T09:18:57.425Z,41.15
2018-11-23T09:20:00.737Z,48.73
2018-11-23T09:21:04.068Z,54.53
2018-11-23T09:22:07.744Z,46.02
2018-11-23T09:23:11.086Z,45.83
2018-11-23T09:24:14.434Z,44.27
2018-11-23T09:25:19.106Z,46.60
2018-11-23T09:26:22.429Z,37.05
2018-11-23T09:27:25.736Z,50.00
2018-11-23T09:28:29.043Z,37.03
2018-11-23T09:29:32.794Z,49.25
2018-11-23T09:30:36.121Z,50.80
2018-11-23T09:31:39.436Z,44.15
2018-11-23T09:32:43.018Z,47.98
2018-11-23T09:33:46.347Z,47.73
2018-11-23T09:34:49.723Z,40.60
2018-11-23T09:35:53.036Z,40.80
2018-11-23T09:36:56.337Z,53.13
2018-11-23T09:37:59.664Z,44.48
2018-11-23T09:39:03.125Z,43.30
2018-11-23T09:40:08.765Z,44.73
2018-11-23T09:41:12.084Z,40.73
2018-11-23T09:42:15.396Z,41.58
2018-11-23T09:43:18.783Z,47.40
2018-11-23T09:44:22.096Z,44.42
2018-11-23T09:45:28.769Z,43.35
2018-11-23T09:46:32.064Z,41.15
2018-11-23T09:47:35.401Z,43.25
2018-11-23T09:48:38.714Z,38.33
2018-11-23T09:49:42.007Z,37.73
2018-11-23T09:50:45.356Z,39.35
2018-11-23T09:51:48.756Z,39.20
2018-11-23T09:52:53.188Z,32.85
2018-11-23T09:53:56.517Z,32.10
2018-11-23T09:54:59.828Z,37.93
2018-11-23T09:56:03.178Z,31.73
2018-11-23T09:57:06.829Z,35.63
2018-11-23T09:58:10.131Z,36.75
2018-11-23T09:59:13.428Z,38.65
2018-11-23T10:00:26.108Z,34.85
2018-11-23T10:01:29.465Z,34.60
2018-11-23T10:02:32.795Z,35.40
2018-11-23T10:03:36.108Z,31.40
2018-11-23T10:04:39.559Z,41.33
2018-11-23T10:05:42.768Z,35.23
2018-11-23T10:06:46.096Z,37.40
2018-11-23T10:07:50.830Z,36.55
2018-11-23T10:08:54.660Z,34.98
2018-11-23T10:09:57.963Z,36.88
2018-11-23T10:11:01.272Z,38.80
2018-11-23T10:12:04.588Z,37.53
2018-11-23T10:13:07.926Z,35.10
2018-11-23T10:14:11.500Z,36.45
2018-11-23T10:15:16.079Z,32.08
2018-11-23T10:16:19.388Z,34.27
2018-11-23T10:17:22.685Z,34.65
2018-11-23T10:18:26.007Z,34.05
2018-11-23T10:19:31.714Z,34.65
2018-11-23T10:20:35.450Z,32.35
2018-11-23T10:21:38.968Z,37.42
2018-11-23T10:22:42.363Z,39.10
2018-11-23T10:23:45.696Z,38.15
2018-11-23T10:24:49.026Z,35.88
2018-11-23T10:25:52.344Z,32.10
2018-11-23T10:26:55.659Z,31.80
2018-11-23T10:27:59.022Z,31.07
2018-11-23T10:29:02.333Z,34.38
2018-11-23T10:30:06.458Z,33.73
2018-11-23T10:31:09.800Z,31.82
2018-11-23T10:32:13.122Z,30.25
2018-11-23T10:33:16.507Z,35.50
2018-11-23T10:34:19.829Z,29.40
2018-11-23T10:35:23.275Z,32.90
2018-11-23T10:36:26.625Z,30.48
2018-11-23T10:37:29.976Z,33.00
2018-11-23T10:38:33.288Z,34.40
2018-11-23T10:39:36.609Z,35.55
2018-11-23T10:40:40.856Z,31.60
2018-11-23T10:41:44.184Z,31.07
2018-11-23T10:42:47.492Z,30.00
2018-11-23T10:43:50.805Z,32.78
2018-11-23T10:44:54.152Z,32.13
2018-11-23T10:45:57.468Z,32.42
2018-11-23T10:47:00.813Z,38.50
2018-11-23T10:48:05.129Z,33.13
2018-11-23T10:49:08.609Z,34.88
2018-11-23T10:50:15.088Z,31.37
2018-11-23T10:51:18.444Z,33.55
2018-11-23T10:52:21.828Z,32.38
2018-11-23T10:53:25.153Z,35.10
2018-11-23T10:54:28.472Z,30.75
2018-11-23T10:55:33.235Z,30.65
2018-11-23T10:56:36.645Z,33.48
2018-11-23T10:57:40.012Z,33.58
2018-11-23T10:58:43.341Z,35.88
2018-11-23T10:59:46.655Z,36.40
2018-11-23T11:00:54.213Z,35.48
2018-11-23T11:02:02.880Z,31.52
2018-11-23T11:03:11.704Z,40.03
2018-11-23T11:04:20.448Z,35.75
2018-11-23T11:05:29.127Z,34.10
2018-11-23T11:06:37.773Z,33.40
2018-11-23T11:07:41.128Z,32.58
2018-11-23T11:08:44.470Z,32.73
2018-11-23T11:09:47.792Z,35.23
2018-11-23T11:10:51.137Z,33.70
2018-11-23T11:11:54.500Z,34.55
2018-11-23T11:12:57.820Z,32.30
2018-11-23T11:14:01.131Z,34.27
2018-11-23T11:15:04.513Z,34.15
2018-11-23T11:16:07.852Z,35.17
2018-11-23T11:17:11.168Z,34.03
2018-11-23T11:18:14.490Z,34.40
2018-11-23T11:19:17.816Z,36.88
2018-11-23T11:20:21.333Z,38.92
2018-11-23T11:21:24.730Z,37.53
2018-11-23T11:22:28.039Z,32.88
2018-11-23T11:23:31.340Z,37.93
2018-11-23T11:24:34.660Z,35.45
2018-11-23T11:25:37.967Z,35.23
2018-11-23T11:26:41.308Z,39.95
2018-11-23T11:27:44.648Z,34.50
2018-11-23T11:28:47.951Z,32.48
2018-11-23T11:29:51.252Z,34.03
2018-11-23T11:30:54.559Z,49.90
2018-11-23T11:31:57.896Z,33.92
2018-11-23T11:33:01.197Z,48.15
2018-11-23T11:34:04.845Z,40.88
2018-11-23T11:35:08.932Z,32.58
2018-11-23T11:36:12.283Z,38.65
2018-11-23T11:37:15.636Z,34.70
2018-11-23T11:38:18.950Z,36.75
2018-11-23T11:39:22.284Z,36.10
2018-11-23T11:40:25.597Z,33.80
2018-11-23T11:41:28.957Z,36.55
2018-11-23T11:42:32.272Z,32.98
2018-11-23T11:43:35.828Z,36.25
2018-11-23T11:44:39.212Z,40.63
2018-11-23T11:45:43.371Z,35.55
2018-11-23T11:46:45.920Z,32.53
2018-11-23T11:47:49.228Z,33.58
2018-11-23T11:48:52.548Z,35.03
2018-11-23T11:49:59.173Z,40.90
2018-11-23T11:50:59.311Z,33.00
2018-11-23T11:52:02.632Z,35.70
2018-11-23T11:53:05.949Z,35.28
2018-11-23T11:54:09.268Z,33.83
2018-11-23T11:55:14.364Z,41.95
2018-11-23T11:56:17.696Z,37.15
2018-11-23T11:57:21.006Z,32.30
2018-11-23T11:58:24.361Z,35.63
2018-11-23T11:59:27.676Z,33.30
2018-11-23T12:00:31.000Z,34.27
2018-11-23T12:01:34.348Z,33.30
2018-11-23T12:02:37.668Z,35.65
2018-11-23T12:03:40.980Z,34.33
2018-11-23T12:04:44.302Z,31.23
2018-11-23T12:05:47.613Z,34.70
2018-11-23T12:06:50.956Z,35.95
2018-11-23T12:07:54.271Z,32.13
2018-11-23T12:08:57.586Z,35.25
2018-11-23T12:10:00.896Z,33.13
2018-11-23T12:11:04.264Z,35.25
2018-11-23T12:12:07.641Z,31.68
2018-11-23T12:13:10.973Z,33.20
2018-11-23T12:14:14.291Z,46.37
2018-11-23T12:15:17.680Z,32.80
2018-11-23T12:16:20.996Z,34.43
2018-11-23T12:17:24.509Z,37.33
2018-11-23T12:18:27.817Z,32.30
2018-11-23T12:19:31.156Z,34.85
2018-11-23T12:20:34.463Z,30.70
2018-11-23T12:21:37.780Z,32.83
2018-11-23T12:22:41.340Z,34.30
2018-11-23T12:23:44.744Z,32.58
2018-11-23T12:24:48.055Z,36.83
2018-11-23T12:25:51.613Z,30.70
2018-11-23T12:26:54.913Z,34.27
2018-11-23T12:27:58.267Z,37.17
2018-11-23T12:29:01.581Z,34.65
2018-11-23T12:30:11.106Z,33.30
2018-11-23T12:31:14.424Z,37.93
2018-11-23T12:32:17.728Z,32.65
2018-11-23T12:33:21.072Z,36.15
2018-11-23T12:34:24.392Z,30.90
2018-11-23T12:35:27.716Z,34.92
2018-11-23T12:36:31.028Z,30.12
2018-11-23T12:37:34.392Z,32.23
2018-11-23T12:38:40.162Z,31.07
2018-11-23T12:39:41.135Z,36.50
2018-11-23T12:40:44.476Z,39.27
2018-11-23T12:41:47.848Z,31.65
2018-11-23T12:42:51.205Z,31.05
2018-11-23T12:43:54.523Z,32.30
2018-11-23T12:44:57.840Z,32.23
2018-11-23T12:46:01.172Z,33.60
2018-11-23T12:47:04.717Z,34.27
2018-11-23T12:48:08.075Z,36.17
2018-11-23T12:49:11.394Z,31.23
2018-11-23T12:50:16.723Z,35.35
2018-11-23T12:51:20.080Z,38.92
2018-11-23T12:52:23.406Z,28.95
2018-11-23T12:53:26.779Z,31.50
2018-11-23T12:54:30.081Z,35.17
2018-11-23T12:55:33.409Z,29.75
2018-11-23T12:56:36.732Z,33.48
2018-11-23T12:57:40.532Z,31.77
2018-11-23T12:58:43.883Z,32.38
2018-11-23T12:59:47.207Z,30.70
2018-11-23T13:00:50.560Z,29.35
2018-11-23T13:01:53.912Z,34.30
2018-11-23T13:02:59.515Z,29.98
2018-11-23T13:04:02.873Z,28.92
2018-11-23T13:05:06.485Z,30.95
2018-11-23T13:06:09.837Z,30.60
2018-11-23T13:07:13.163Z,29.02
2018-11-23T13:08:16.480Z,28.02
2018-11-23T13:09:19.825Z,38.23
2018-11-23T13:10:24.146Z,32.38
2018-11-23T13:11:27.516Z,27.75
2018-11-23T13:12:30.831Z,32.63
2018-11-23T13:13:34.186Z,29.55
2018-11-23T13:14:37.526Z,29.32
2018-11-23T13:15:40.844Z,33.38
2018-11-23T13:16:44.156Z,30.45
2018-11-23T13:17:47.492Z,33.28
2018-11-23T13:18:50.847Z,34.30
2018-11-23T13:19:54.190Z,34.13
2018-11-23T13:20:57.559Z,36.00
2018-11-23T13:22:00.892Z,31.50
2018-11-23T13:23:04.473Z,32.95
2018-11-23T13:24:07.786Z,31.10
2018-11-23T13:25:14.320Z,34.23
2018-11-23T13:26:17.660Z,32.08
2018-11-23T13:27:20.984Z,35.68
2018-11-23T13:28:24.292Z,28.55
2018-11-23T13:29:27.648Z,32.85
2018-11-23T13:30:34.413Z,28.25
2018-11-23T13:31:37.773Z,30.68
2018-11-23T13:32:41.789Z,30.75
2018-11-23T13:33:45.107Z,35.20
2018-11-23T13:34:48.417Z,32.23
2018-11-23T13:35:51.770Z,30.20
2018-11-23T13:36:55.119Z,34.60
2018-11-23T13:37:58.448Z,36.20
2018-11-23T13:39:01.760Z,31.95